Terminal Aerodrome Forecast
Issued by NWS

Home | Current Version | Previous Version | Text Only | Print | Product List | Glossary On
Versions: 1 2 3 4 5 6 7 8 9 10 11 12 13 14 15 16 17 18 19 20 21
000
FTAK31 PAJN 060500
TAFAYA
TAF
PAYA 060530Z 0606/0706 VRB02KT P6SM VCSH SCT025 OVC035
      TEMPO 0606/0609 -SHRA BKN025
     FM060900 09003KT P6SM -SHRA BKN025 OVC035
     FM061800 11007KT P6SM -RA SCT010 BKN022 OVC030
     FM070300 13008KT 5SM -RA BR SCT006 BKN015 OVC025
      AMD LTD TO CLD VIS AND WIND 0606/0610=

USA.gov is the U.S. government's official web portal to all federal, state and local government web resources and services.